createdAt,value
2018-11-12T00:00:33.195Z,22.70
2018-11-12T00:01:33.182Z,21.60
2018-11-12T00:02:33.170Z,21.00
2018-11-12T00:03:33.159Z,21.50
2018-11-12T00:04:33.148Z,22.10
2018-11-12T00:05:33.138Z,24.50
2018-11-12T00:06:33.123Z,24.90
2018-11-12T00:07:33.112Z,25.90
2018-11-12T00:08:33.101Z,27.40
2018-11-12T00:09:33.094Z,29.50
2018-11-12T00:10:33.075Z,26.20
2018-11-12T00:11:33.065Z,30.90
2018-11-12T00:12:33.054Z,34.50
2018-11-12T00:13:33.044Z,32.80
2018-11-12T00:14:33.033Z,32.30
2018-11-12T00:15:33.018Z,33.30
2018-11-12T00:16:33.005Z,34.50
2018-11-12T00:17:32.994Z,37.60
2018-11-12T00:18:32.981Z,32.00
2018-11-12T00:19:32.971Z,32.70
2018-11-12T00:20:32.960Z,28.90
2018-11-12T00:21:32.950Z,28.70
2018-11-12T00:22:32.934Z,28.10
2018-11-12T00:23:32.923Z,29.00
2018-11-12T00:24:32.912Z,29.00
2018-11-12T00:25:32.898Z,25.50
2018-11-12T00:26:32.886Z,29.60
2018-11-12T00:27:32.876Z,28.30
2018-11-12T00:28:32.864Z,27.60
2018-11-12T00:29:32.851Z,25.60
2018-11-12T00:30:32.838Z,26.50
2018-11-12T00:31:32.830Z,27.20
2018-11-12T00:32:32.817Z,25.40
2018-11-12T00:33:32.805Z,25.10
2018-11-12T00:34:32.789Z,28.10
2018-11-12T00:35:32.778Z,25.00
2018-11-12T00:36:32.767Z,24.70
2018-11-12T00:37:32.756Z,26.30
2018-11-12T00:38:32.742Z,27.30
2018-11-12T00:39:32.731Z,23.80
2018-11-12T00:40:32.719Z,26.40
2018-11-12T00:41:32.708Z,27.20
2018-11-12T00:42:32.695Z,26.90
2018-11-12T00:43:32.684Z,25.10
2018-11-12T00:44:32.672Z,25.60
2018-11-12T00:45:32.660Z,27.10
2018-11-12T00:46:32.649Z,26.00
2018-11-12T00:47:32.639Z,26.10
2018-11-12T00:48:32.625Z,28.70
2018-11-12T00:49:32.616Z,27.90
2018-11-12T00:50:32.601Z,27.50
2018-11-12T00:51:32.591Z,29.80
2018-11-12T00:52:32.578Z,26.40
2018-11-12T00:53:32.567Z,26.50
2018-11-12T00:54:32.556Z,27.90
2018-11-12T00:55:32.548Z,27.70
2018-11-12T00:56:32.533Z,29.10
2018-11-12T00:57:32.521Z,28.10
2018-11-12T00:58:32.511Z,29.70
2018-11-12T00:59:32.497Z,29.10
2018-11-12T01:00:32.487Z,27.80
2018-11-12T01:01:32.473Z,28.90
2018-11-12T01:02:32.463Z,26.20
2018-11-12T01:03:32.451Z,27.90
2018-11-12T01:04:32.439Z,27.30
2018-11-12T01:05:32.429Z,26.20
2018-11-12T01:06:32.416Z,25.10
2018-11-12T01:07:32.407Z,27.30
2018-11-12T01:08:32.393Z,27.30
2018-11-12T01:09:32.382Z,28.50
2018-11-12T01:10:32.370Z,28.20
2018-11-12T01:11:32.358Z,28.00
2018-11-12T01:12:32.346Z,27.50
2018-11-12T01:13:32.335Z,27.90
2018-11-12T01:14:32.328Z,28.20
2018-11-12T01:15:32.311Z,28.90
2018-11-12T01:16:32.300Z,33.80
2018-11-12T01:17:32.290Z,38.80
2018-11-12T01:18:32.280Z,29.20
2018-11-12T01:19:32.264Z,30.10
2018-11-12T01:20:32.254Z,31.80
2018-11-12T01:21:32.243Z,28.70
2018-11-12T01:22:32.235Z,31.00
2018-11-12T01:23:32.219Z,34.10
2018-11-12T01:24:32.206Z,34.60
2018-11-12T01:25:32.197Z,34.80
2018-11-12T01:26:32.184Z,35.00
2018-11-12T01:27:32.172Z,33.10
2018-11-12T01:28:32.161Z,35.50
2018-11-12T01:29:32.149Z,37.30
2018-11-12T01:30:32.137Z,38.80
2018-11-12T01:31:32.128Z,36.60
2018-11-12T01:32:32.117Z,38.10
2018-11-12T01:33:32.104Z,42.40
2018-11-12T01:34:32.093Z,39.40
2018-11-12T01:35:32.082Z,34.10
2018-11-12T01:36:32.074Z,41.40
2018-11-12T01:37:32.060Z,38.80
2018-11-12T01:38:32.046Z,58.00
2018-11-12T01:39:32.039Z,63.30
2018-11-12T01:40:32.022Z,58.50
2018-11-12T01:41:32.013Z,86.20
2018-11-12T01:42:31.999Z,117.80
2018-11-12T01:43:31.990Z,119.70
2018-11-12T01:44:31.977Z,81.20
2018-11-12T01:45:31.966Z,76.10
2018-11-12T01:46:31.955Z,61.60
2018-11-12T01:47:31.944Z,46.80
2018-11-12T01:48:31.932Z,40.60
2018-11-12T01:49:31.920Z,38.60
2018-11-12T01:50:31.906Z,36.90
2018-11-12T01:51:31.897Z,39.80
2018-11-12T01:52:31.885Z,37.90
2018-11-12T01:53:31.875Z,40.40
2018-11-12T01:54:31.861Z,44.20
2018-11-12T01:55:31.852Z,44.30
2018-11-12T01:56:31.841Z,41.90
2018-11-12T01:57:31.827Z,42.10
2018-11-12T01:58:31.815Z,40.80
2018-11-12T01:59:31.806Z,38.00
2018-11-12T02:00:31.792Z,39.60
2018-11-12T02:01:31.829Z,37.70
2018-11-12T02:02:31.768Z,38.40
2018-11-12T02:03:31.759Z,36.60
2018-11-12T02:04:31.747Z,37.50
2018-11-12T02:05:31.736Z,33.70
2018-11-12T02:06:31.722Z,34.40
2018-11-12T02:07:31.710Z,32.60
2018-11-12T02:08:31.701Z,35.10
2018-11-12T02:09:31.688Z,35.50
2018-11-12T02:10:31.679Z,33.90
2018-11-12T02:11:31.665Z,36.80
2018-11-12T02:12:31.652Z,35.10
2018-11-12T02:13:31.641Z,33.90
2018-11-12T02:14:31.645Z,32.50
2018-11-12T02:15:31.615Z,33.00
2018-11-12T02:16:31.604Z,32.30
2018-11-12T02:17:31.594Z,31.70
2018-11-12T02:18:31.583Z,32.10
2018-11-12T02:19:31.571Z,30.70
2018-11-12T02:20:31.560Z,33.00
2018-11-12T02:21:31.552Z,31.20
2018-11-12T02:22:31.539Z,30.20
2018-11-12T02:23:31.522Z,29.90
2018-11-12T02:24:31.511Z,30.90
2018-11-12T02:25:31.501Z,29.10
2018-11-12T02:26:31.488Z,28.50
2018-11-12T02:27:31.474Z,29.80
2018-11-12T02:28:31.463Z,28.70
2018-11-12T02:29:31.460Z,30.40
2018-11-12T02:30:31.505Z,29.50
2018-11-12T02:31:31.432Z,30.30
2018-11-12T02:32:31.417Z,36.90
2018-11-12T02:33:31.405Z,43.50
2018-11-12T02:34:31.392Z,47.40
2018-11-12T02:35:31.381Z,45.20
2018-11-12T02:36:31.371Z,67.60
2018-11-12T02:37:31.360Z,73.10
2018-11-12T02:38:31.350Z,66.90
2018-11-12T02:39:31.336Z,113.50
2018-11-12T02:40:31.323Z,50.40
2018-11-12T02:41:31.315Z,42.70
2018-11-12T02:42:31.299Z,55.60
2018-11-12T02:43:31.289Z,51.70
2018-11-12T02:44:31.277Z,45.00
2018-11-12T02:45:31.268Z,37.90
2018-11-12T02:46:31.253Z,46.30
2018-11-12T02:47:31.242Z,43.80
2018-11-12T02:48:31.232Z,31.50
2018-11-12T02:49:31.220Z,32.80
2018-11-12T02:50:31.208Z,34.80
2018-11-12T02:51:31.196Z,35.50
2018-11-12T02:52:31.185Z,33.00
2018-11-12T02:53:31.173Z,32.00
2018-11-12T02:54:31.162Z,31.40
2018-11-12T02:55:31.149Z,31.60
2018-11-12T02:56:31.137Z,30.20
2018-11-12T02:57:31.217Z,30.40
2018-11-12T02:58:31.114Z,32.60
2018-11-12T02:59:31.104Z,28.80
2018-11-12T03:00:31.091Z,31.40
2018-11-12T03:01:31.080Z,30.60
2018-11-12T03:02:31.069Z,28.80
2018-11-12T03:03:31.056Z,31.20
2018-11-12T03:04:31.045Z,41.90
2018-11-12T03:05:31.035Z,33.30
2018-11-12T03:06:31.023Z,34.00
2018-11-12T03:07:31.090Z,38.00
2018-11-12T03:08:31.000Z,36.30
2018-11-12T03:09:30.988Z,49.00
2018-11-12T03:10:30.975Z,45.20
2018-11-12T03:11:30.965Z,54.60
2018-11-12T03:12:30.952Z,42.00
2018-11-12T03:13:30.943Z,35.00
2018-11-12T03:14:30.930Z,42.00
2018-11-12T03:15:30.919Z,34.90
2018-11-12T03:16:30.905Z,37.40
2018-11-12T03:17:30.894Z,32.00
2018-11-12T03:18:30.881Z,30.00
2018-11-12T03:19:30.870Z,29.00
2018-11-12T03:20:30.859Z,28.60
2018-11-12T03:21:30.848Z,31.80
2018-11-12T03:22:30.834Z,27.70
2018-11-12T03:23:30.824Z,25.50
2018-11-12T03:24:30.813Z,28.60
2018-11-12T03:25:30.801Z,24.90
2018-11-12T03:26:30.789Z,31.10
2018-11-12T03:27:30.813Z,37.80
2018-11-12T03:28:30.765Z,37.60
2018-11-12T03:29:30.755Z,42.00
2018-11-12T03:30:30.741Z,33.50
2018-11-12T03:31:30.731Z,40.50
2018-11-12T03:32:30.726Z,27.50
2018-11-12T03:33:30.706Z,31.70
2018-11-12T03:34:30.695Z,38.50
2018-11-12T03:35:30.683Z,37.90
2018-11-12T03:36:30.670Z,33.50
2018-11-12T03:37:30.660Z,30.80
2018-11-12T03:38:30.649Z,32.80
2018-11-12T03:39:30.644Z,35.40
2018-11-12T03:40:30.625Z,28.00
2018-11-12T03:41:30.612Z,29.60
2018-11-12T03:42:30.600Z,31.60
2018-11-12T03:43:30.590Z,27.10
2018-11-12T03:44:30.577Z,29.30
2018-11-12T03:45:30.565Z,21.80
2018-11-12T03:46:30.554Z,23.10
2018-11-12T03:47:30.546Z,25.70
2018-11-12T03:48:30.532Z,22.00
2018-11-12T03:49:30.519Z,20.30
2018-11-12T03:50:30.505Z,20.40
2018-11-12T03:51:30.496Z,22.00
2018-11-12T03:52:30.484Z,22.00
2018-11-12T03:53:30.471Z,25.60
2018-11-12T03:54:30.459Z,23.00
2018-11-12T03:55:30.452Z,26.90
2018-11-12T03:56:30.439Z,34.40
2018-11-12T03:57:30.424Z,28.90
2018-11-12T03:58:30.417Z,30.20
2018-11-12T03:59:30.400Z,29.40
2018-11-12T04:00:30.509Z,29.30
2018-11-12T04:01:30.377Z,26.60
2018-11-12T04:02:30.364Z,27.60
2018-11-12T04:03:30.354Z,28.50
2018-11-12T04:04:30.342Z,27.10
2018-11-12T04:05:30.331Z,24.00
2018-11-12T04:06:30.319Z,29.30
2018-11-12T04:07:30.308Z,27.80
2018-11-12T04:08:30.294Z,29.30
2018-11-12T04:09:30.288Z,32.10
2018-11-12T04:10:30.269Z,25.50
2018-11-12T04:11:30.260Z,26.50
2018-11-12T04:12:30.247Z,24.10
2018-11-12T04:13:30.236Z,26.60
2018-11-12T04:14:30.224Z,24.40
2018-11-12T04:15:30.212Z,22.70
2018-11-12T04:16:30.199Z,23.40
2018-11-12T04:17:30.187Z,24.00
2018-11-12T04:18:30.174Z,26.10
2018-11-12T04:19:30.162Z,25.20
2018-11-12T04:20:30.152Z,25.30
2018-11-12T04:21:30.138Z,24.20
2018-11-12T04:22:30.131Z,22.00
2018-11-12T04:23:30.116Z,22.10
2018-11-12T04:24:30.110Z,23.10
2018-11-12T04:25:30.093Z,25.50
2018-11-12T04:26:30.081Z,25.40
2018-11-12T04:27:30.067Z,21.60
2018-11-12T04:28:30.057Z,21.50
2018-11-12T04:29:30.045Z,22.70
2018-11-12T04:30:30.036Z,20.20
2018-11-12T04:31:30.020Z,21.20
2018-11-12T04:32:30.009Z,21.10
2018-11-12T04:33:29.998Z,21.60
2018-11-12T04:34:29.992Z,21.00
2018-11-12T04:35:29.974Z,17.70
2018-11-12T04:36:29.965Z,19.20
2018-11-12T04:37:29.949Z,17.40
2018-11-12T04:38:29.938Z,19.40
2018-11-12T04:39:29.925Z,21.70
2018-11-12T04:40:29.916Z,20.20
2018-11-12T04:41:29.903Z,22.80
2018-11-12T04:42:29.892Z,21.90
2018-11-12T04:43:29.878Z,19.30
2018-11-12T04:44:29.867Z,18.70
2018-11-12T04:45:29.915Z,18.30
2018-11-12T04:46:29.845Z,17.40
2018-11-12T04:47:29.830Z,17.80
2018-11-12T04:48:29.821Z,17.00
2018-11-12T04:49:29.815Z,17.50
2018-11-12T04:50:29.795Z,16.20
2018-11-12T04:51:29.784Z,17.80
2018-11-12T04:52:29.772Z,15.80
2018-11-12T04:53:29.803Z,18.20
2018-11-12T04:54:29.749Z,16.80
2018-11-12T04:55:29.794Z,18.10
2018-11-12T04:56:29.721Z,18.00
2018-11-12T04:57:29.710Z,17.80
2018-11-12T04:58:29.699Z,19.00
2018-11-12T04:59:29.685Z,17.80
2018-11-12T05:00:29.673Z,18.40
2018-11-12T05:01:29.664Z,16.60
2018-11-12T05:02:29.650Z,17.10
2018-11-12T05:03:29.642Z,16.40
2018-11-12T05:04:29.627Z,16.80
2018-11-12T05:05:29.616Z,16.90
2018-11-12T05:06:29.603Z,17.40
2018-11-12T05:07:29.624Z,16.00
2018-11-12T05:08:29.577Z,17.90
2018-11-12T05:09:29.564Z,17.30
2018-11-12T05:10:29.552Z,17.50
2018-11-12T05:11:29.540Z,17.00
2018-11-12T05:12:29.529Z,19.30
2018-11-12T05:13:29.519Z,16.90
2018-11-12T05:14:29.506Z,18.30
2018-11-12T05:15:29.492Z,17.20
2018-11-12T05:16:29.487Z,17.40
2018-11-12T05:17:29.474Z,17.30
2018-11-12T05:18:29.464Z,17.20
2018-11-12T05:19:29.448Z,17.00
2018-11-12T05:20:29.439Z,17.00
2018-11-12T05:21:29.423Z,17.30
2018-11-12T05:22:29.411Z,17.00
2018-11-12T05:23:29.400Z,18.10
2018-11-12T05:24:29.388Z,17.70
2018-11-12T05:25:29.375Z,17.50
2018-11-12T05:26:29.362Z,16.00
2018-11-12T05:27:29.351Z,16.50
2018-11-12T05:28:29.338Z,16.10
2018-11-12T05:29:29.328Z,17.40
2018-11-12T05:30:29.314Z,16.50
2018-11-12T05:31:29.304Z,16.80
2018-11-12T05:32:29.293Z,14.90
2018-11-12T05:33:29.283Z,17.50
2018-11-12T05:34:29.268Z,16.00
2018-11-12T05:35:29.256Z,16.70
2018-11-12T05:36:29.243Z,15.70
2018-11-12T05:37:29.289Z,15.40
2018-11-12T05:38:29.261Z,15.40
2018-11-12T05:39:29.207Z,15.50
2018-11-12T05:40:29.201Z,15.40
2018-11-12T05:41:29.186Z,17.20
2018-11-12T05:42:29.170Z,15.90
2018-11-12T05:43:29.159Z,16.60
2018-11-12T05:44:29.149Z,15.30
2018-11-12T05:45:29.136Z,15.00
2018-11-12T05:46:29.125Z,14.00
2018-11-12T05:47:29.112Z,15.40
2018-11-12T05:48:29.103Z,15.70
2018-11-12T05:49:29.088Z,14.80
2018-11-12T05:50:29.079Z,14.00
2018-11-12T05:51:29.083Z,15.80
2018-11-12T05:52:29.054Z,12.90
2018-11-12T05:53:29.042Z,14.20
2018-11-12T05:54:29.029Z,15.30
2018-11-12T05:55:29.017Z,16.00
2018-11-12T05:56:29.003Z,15.10
2018-11-12T05:57:28.990Z,15.20
2018-11-12T05:58:28.979Z,14.80
2018-11-12T05:59:28.969Z,15.70
2018-11-12T06:00:28.955Z,15.30
2018-11-12T06:01:28.946Z,15.50
2018-11-12T06:02:28.931Z,15.70
2018-11-12T06:03:28.920Z,15.50
2018-11-12T06:04:28.908Z,14.50
2018-11-12T06:05:28.895Z,15.60
2018-11-12T06:06:28.882Z,15.00
2018-11-12T06:07:28.872Z,15.50
2018-11-12T06:08:28.860Z,16.60
2018-11-12T06:09:28.847Z,16.20
2018-11-12T06:10:28.835Z,16.20
2018-11-12T06:11:28.823Z,16.30
2018-11-12T06:12:28.812Z,15.90
2018-11-12T06:13:28.798Z,14.70
2018-11-12T06:14:28.787Z,15.30
2018-11-12T06:15:28.774Z,15.30
2018-11-12T06:16:28.763Z,15.30
2018-11-12T06:17:28.751Z,14.60
2018-11-12T06:18:28.738Z,14.20
2018-11-12T06:19:28.725Z,15.00
2018-11-12T06:20:28.757Z,15.70
2018-11-12T06:21:28.704Z,15.60
2018-11-12T06:22:28.736Z,15.30
2018-11-12T06:23:28.676Z,14.10
2018-11-12T06:24:28.663Z,13.70
2018-11-12T06:25:28.657Z,13.50
2018-11-12T06:26:28.640Z,14.60
2018-11-12T06:27:28.631Z,14.50
2018-11-12T06:28:28.617Z,15.40
2018-11-12T06:29:28.605Z,14.80
2018-11-12T06:30:28.592Z,14.80
2018-11-12T06:31:28.580Z,15.30
2018-11-12T06:32:28.569Z,14.50
2018-11-12T06:33:28.555Z,14.70
2018-11-12T06:34:28.543Z,14.90
2018-11-12T06:35:28.533Z,16.70
2018-11-12T06:36:28.520Z,15.40
2018-11-12T06:37:28.513Z,15.00
2018-11-12T06:38:28.494Z,14.30
2018-11-12T06:39:28.484Z,14.40
2018-11-12T06:40:28.470Z,14.10
2018-11-12T06:41:28.468Z,13.60
2018-11-12T06:42:28.458Z,15.20
2018-11-12T06:43:28.437Z,13.60
2018-11-12T06:44:28.422Z,14.80
2018-11-12T06:45:28.410Z,15.50
2018-11-12T06:46:28.397Z,13.50
2018-11-12T06:47:28.388Z,14.90
2018-11-12T06:48:28.376Z,16.30
2018-11-12T06:49:28.368Z,16.90
2018-11-12T06:50:28.350Z,16.90
2018-11-12T06:51:28.337Z,18.30
2018-11-12T06:52:28.331Z,18.90
2018-11-12T06:53:28.410Z,17.20
2018-11-12T06:54:28.300Z,19.40
2018-11-12T06:55:28.289Z,18.70
2018-11-12T06:56:28.276Z,18.50
2018-11-12T06:57:28.264Z,18.30
2018-11-12T06:58:28.253Z,19.70
2018-11-12T06:59:28.241Z,19.40
2018-11-12T07:00:28.331Z,17.70
2018-11-12T07:01:28.213Z,17.40
2018-11-12T07:02:28.204Z,16.80
2018-11-12T07:03:28.190Z,18.40
2018-11-12T07:04:28.178Z,16.60
2018-11-12T07:05:28.166Z,17.50
2018-11-12T07:06:28.224Z,17.10
2018-11-12T07:07:28.142Z,15.70
2018-11-12T07:08:28.128Z,15.70
2018-11-12T07:09:28.318Z,15.90
2018-11-12T07:10:28.102Z,15.00
2018-11-12T07:11:28.094Z,15.30
2018-11-12T07:12:28.083Z,16.10
2018-11-12T07:13:28.071Z,15.70
2018-11-12T07:14:28.055Z,15.40
2018-11-12T07:15:28.044Z,15.40
2018-11-12T07:16:28.033Z,15.00
2018-11-12T07:17:28.018Z,14.60
2018-11-12T07:18:28.005Z,14.60
2018-11-12T07:19:28.000Z,14.20
2018-11-12T07:20:27.982Z,15.00
2018-11-12T07:21:27.972Z,15.00
2018-11-12T07:22:27.959Z,15.50
2018-11-12T07:23:27.945Z,14.60
2018-11-12T07:24:27.935Z,15.90
2018-11-12T07:25:27.925Z,15.20
2018-11-12T07:26:27.909Z,15.00
2018-11-12T07:27:27.898Z,15.20
2018-11-12T07:28:27.886Z,14.70
2018-11-12T07:29:27.873Z,16.20
2018-11-12T07:30:27.863Z,15.80
2018-11-12T07:31:28.050Z,13.90
2018-11-12T07:32:27.838Z,14.50
2018-11-12T07:33:27.827Z,16.00
2018-11-12T07:34:27.815Z,15.40
2018-11-12T07:35:27.804Z,15.70
2018-11-12T07:36:27.794Z,15.30
2018-11-12T07:37:27.781Z,15.70
2018-11-12T07:38:27.770Z,15.10
2018-11-12T07:39:27.758Z,14.30
2018-11-12T07:40:27.745Z,15.50
2018-11-12T07:41:27.734Z,15.30
2018-11-12T07:42:27.722Z,16.50
2018-11-12T07:43:27.707Z,16.70
2018-11-12T07:44:27.697Z,17.40
2018-11-12T07:45:27.687Z,17.70
2018-11-12T07:46:27.674Z,17.80
2018-11-12T07:47:27.663Z,19.50
2018-11-12T07:48:27.650Z,18.50
2018-11-12T07:49:27.639Z,17.90
2018-11-12T07:50:27.626Z,20.50
2018-11-12T07:51:27.680Z,18.80
2018-11-12T07:52:27.603Z,25.30
2018-11-12T07:53:27.592Z,23.10
2018-11-12T07:54:27.641Z,19.00
2018-11-12T07:55:27.567Z,19.90
2018-11-12T07:56:27.592Z,22.10
2018-11-12T07:57:27.547Z,18.80
2018-11-12T07:58:27.534Z,19.10
2018-11-12T07:59:27.523Z,18.80
2018-11-12T08:00:27.508Z,18.20
2018-11-12T08:01:27.496Z,20.50
2018-11-12T08:02:27.485Z,22.20
2018-11-12T08:03:27.491Z,23.10
2018-11-12T08:04:27.461Z,22.20
2018-11-12T08:05:27.450Z,21.70
2018-11-12T08:06:27.436Z,20.20
2018-11-12T08:07:27.425Z,21.00
2018-11-12T08:08:27.414Z,20.60
2018-11-12T08:09:27.458Z,20.00
2018-11-12T08:10:27.391Z,19.70
2018-11-12T08:11:27.377Z,19.20
2018-11-12T08:12:27.379Z,18.00
2018-11-12T08:13:27.352Z,19.40
2018-11-12T08:14:27.434Z,18.30
2018-11-12T08:15:27.336Z,19.70
2018-11-12T08:16:27.323Z,23.50
2018-11-12T08:17:27.408Z,20.80
2018-11-12T08:18:27.294Z,19.60
2018-11-12T08:19:27.289Z,19.50
2018-11-12T08:20:27.273Z,19.50
2018-11-12T08:21:27.260Z,21.20
2018-11-12T08:22:27.247Z,18.50
2018-11-12T08:23:27.234Z,19.40
2018-11-12T08:24:27.245Z,20.80
2018-11-12T08:25:27.211Z,19.90
2018-11-12T08:26:27.200Z,19.70
2018-11-12T08:27:27.211Z,19.90
2018-11-12T08:28:27.177Z,19.00
2018-11-12T08:29:27.164Z,20.10
2018-11-12T08:30:27.277Z,18.40
2018-11-12T08:31:27.141Z,19.00
2018-11-12T08:32:27.130Z,20.80
2018-11-12T08:33:27.119Z,19.90
2018-11-12T08:34:27.106Z,20.40
2018-11-12T08:35:27.099Z,20.30
2018-11-12T08:36:27.108Z,19.10
2018-11-12T08:37:27.069Z,18.90
2018-11-12T08:38:27.060Z,18.60
2018-11-12T08:39:27.144Z,18.40
2018-11-12T08:40:27.144Z,16.90
2018-11-12T08:41:27.024Z,18.90
2018-11-12T08:42:27.010Z,20.10
2018-11-12T08:43:27.001Z,21.70
2018-11-12T08:44:26.989Z,20.60
2018-11-12T08:45:26.981Z,17.40
2018-11-12T08:46:26.966Z,19.50
2018-11-12T08:47:26.952Z,18.90
2018-11-12T08:48:27.009Z,20.20
2018-11-12T08:49:26.976Z,17.90
2018-11-12T08:50:26.919Z,19.10
2018-11-12T08:51:26.908Z,20.40
2018-11-12T08:52:26.898Z,18.50
2018-11-12T08:53:26.885Z,22.00
2018-11-12T08:54:26.884Z,20.00
2018-11-12T08:55:26.902Z,17.70
2018-11-12T08:56:26.850Z,21.00
2018-11-12T08:57:26.839Z,19.80
2018-11-12T08:58:26.826Z,20.00
2018-11-12T08:59:26.820Z,19.80
2018-11-12T09:00:26.805Z,23.10
2018-11-12T09:01:26.793Z,19.80
2018-11-12T09:02:26.780Z,23.00
2018-11-12T09:03:26.771Z,20.60
2018-11-12T09:04:26.759Z,24.90
2018-11-12T09:05:26.748Z,23.10
2018-11-12T09:06:26.735Z,19.00
2018-11-12T09:07:26.883Z,19.90
2018-11-12T09:08:26.711Z,22.00
2018-11-12T09:09:26.701Z,20.80
2018-11-12T09:10:26.688Z,21.60
2018-11-12T09:11:26.675Z,18.70
2018-11-12T09:12:26.668Z,20.40
2018-11-12T09:13:26.655Z,20.70
2018-11-12T09:14:26.643Z,20.10
2018-11-12T09:15:26.638Z,19.30
2018-11-12T09:16:26.622Z,19.50
2018-11-12T09:17:26.610Z,20.60
2018-11-12T09:18:26.597Z,19.00
2018-11-12T09:19:26.587Z,18.80
2018-11-12T09:20:26.593Z,19.30
2018-11-12T09:21:26.563Z,19.20
2018-11-12T09:22:26.552Z,21.20
2018-11-12T09:23:26.565Z,21.60
2018-11-12T09:24:26.628Z,19.10
2018-11-12T09:25:26.518Z,18.80
2018-11-12T09:26:26.508Z,19.30
2018-11-12T09:27:26.495Z,19.80
2018-11-12T09:28:26.485Z,19.50
2018-11-12T09:29:26.505Z,18.90
2018-11-12T09:30:26.460Z,19.00
2018-11-12T09:31:27.343Z,18.60
2018-11-12T09:32:26.439Z,18.20
2018-11-12T09:33:26.429Z,18.30
2018-11-12T09:34:26.418Z,19.80
2018-11-12T09:35:26.406Z,18.90
2018-11-12T09:36:26.397Z,19.40
2018-11-12T09:37:26.471Z,21.70
2018-11-12T09:38:26.445Z,19.90
2018-11-12T09:39:26.360Z,19.50
2018-11-12T09:40:26.350Z,18.80
2018-11-12T09:41:26.523Z,18.00
2018-11-12T09:42:26.370Z,18.00
2018-11-12T09:43:26.314Z,18.40
2018-11-12T09:44:26.357Z,19.00
2018-11-12T09:45:26.293Z,18.40
2018-11-12T09:46:26.283Z,20.00
2018-11-12T09:47:26.277Z,19.40
2018-11-12T09:48:26.277Z,18.50
2018-11-12T09:49:26.248Z,18.20
2018-11-12T09:50:26.235Z,19.20
2018-11-12T09:51:26.225Z,21.20
2018-11-12T09:52:26.215Z,18.20
2018-11-12T09:53:26.245Z,18.50
2018-11-12T09:54:26.307Z,18.60
2018-11-12T09:55:26.182Z,21.00
2018-11-12T09:56:26.170Z,20.40
2018-11-12T09:57:26.159Z,18.90
2018-11-12T09:58:26.147Z,19.30
2018-11-12T09:59:26.236Z,18.00
2018-11-12T10:00:26.350Z,18.50
2018-11-12T10:01:26.652Z,19.10
2018-11-12T10:02:27.161Z,20.80
2018-11-12T10:03:27.181Z,19.10
2018-11-12T10:04:27.163Z,19.10
2018-11-12T10:05:27.546Z,21.30
2018-11-12T10:06:27.600Z,19.30
2018-11-12T10:07:27.539Z,18.10
2018-11-12T10:08:27.779Z,18.40
2018-11-12T10:09:27.816Z,18.80
2018-11-12T10:10:28.227Z,19.40
2018-11-12T10:11:27.687Z,19.00
2018-11-12T10:12:29.186Z,17.50
2018-11-12T10:13:27.778Z,16.80
2018-11-12T10:14:28.878Z,16.90
2018-11-12T10:15:28.893Z,19.00
2018-11-12T10:16:29.191Z,18.70
2018-11-12T10:17:29.567Z,18.00
2018-11-12T10:18:25.936Z,20.50
2018-11-12T10:19:25.947Z,22.10
2018-11-12T10:20:25.913Z,22.60
2018-11-12T10:21:25.898Z,20.00
2018-11-12T10:22:25.887Z,20.50
2018-11-12T10:23:25.875Z,23.20
2018-11-12T10:24:25.865Z,21.30
2018-11-12T10:25:25.854Z,19.90
2018-11-12T10:26:25.850Z,18.40
2018-11-12T10:27:25.833Z,21.70
2018-11-12T10:28:25.820Z,20.90
2018-11-12T10:29:25.810Z,18.80
2018-11-12T10:30:25.800Z,20.60
2018-11-12T10:31:25.787Z,21.00
2018-11-12T10:32:25.778Z,23.10
2018-11-12T10:33:25.769Z,21.10
2018-11-12T10:34:25.756Z,20.80
2018-11-12T10:35:25.745Z,22.10
2018-11-12T10:36:25.733Z,20.40
2018-11-12T10:37:25.724Z,20.50
2018-11-12T10:38:25.712Z,21.90
2018-11-12T10:39:25.701Z,20.20
2018-11-12T10:40:25.692Z,31.20
2018-11-12T10:41:25.680Z,24.60
2018-11-12T10:42:25.670Z,19.30
2018-11-12T10:43:25.659Z,20.40
2018-11-12T10:44:25.650Z,23.10
2018-11-12T10:45:25.636Z,17.80
2018-11-12T10:46:25.629Z,18.90
2018-11-12T10:47:25.616Z,18.70
2018-11-12T10:48:25.639Z,19.00
2018-11-12T10:49:25.595Z,17.50
2018-11-12T10:50:25.582Z,21.00
2018-11-12T10:51:25.623Z,18.20
2018-11-12T10:52:25.563Z,18.00
2018-11-12T10:53:25.567Z,17.80
2018-11-12T10:54:25.636Z,17.10
2018-11-12T10:55:25.656Z,17.70
2018-11-12T10:56:25.520Z,20.20
2018-11-12T10:57:25.510Z,18.70
2018-11-12T10:58:25.528Z,17.90
2018-11-12T10:59:25.489Z,18.90
2018-11-12T11:00:25.479Z,20.10
2018-11-12T11:01:25.467Z,18.80
2018-11-12T11:02:25.455Z,17.80
2018-11-12T11:03:25.446Z,18.30
2018-11-12T11:04:25.436Z,17.40
2018-11-12T11:05:25.427Z,18.50
2018-11-12T11:06:25.415Z,18.20
2018-11-12T11:07:25.403Z,18.60
2018-11-12T11:08:25.394Z,17.70
2018-11-12T11:09:25.384Z,18.40
2018-11-12T11:10:25.372Z,17.30
2018-11-12T11:11:25.364Z,19.70
2018-11-12T11:12:25.369Z,15.30
2018-11-12T11:13:25.341Z,17.50
2018-11-12T11:14:25.330Z,17.60
2018-11-12T11:15:25.365Z,16.20
2018-11-12T11:16:25.313Z,17.80
2018-11-12T11:17:25.300Z,17.70
2018-11-12T11:18:25.290Z,16.20
2018-11-12T11:19:25.293Z,16.40
2018-11-12T11:20:25.270Z,17.80
2018-11-12T11:21:25.327Z,15.40
2018-11-12T11:22:25.247Z,15.20
2018-11-12T11:23:25.240Z,14.80
2018-11-12T11:24:25.228Z,16.60
2018-11-12T11:25:25.217Z,15.30
2018-11-12T11:26:25.209Z,14.90
2018-11-12T11:27:25.197Z,17.60
2018-11-12T11:28:25.187Z,15.90
2018-11-12T11:29:25.177Z,15.20
2018-11-12T11:30:25.168Z,15.20
2018-11-12T11:31:25.156Z,13.80
2018-11-12T11:32:25.146Z,14.60
2018-11-12T11:33:25.138Z,15.90
2018-11-12T11:34:25.132Z,14.50
2018-11-12T11:35:25.114Z,15.90
2018-11-12T11:36:25.105Z,15.00
2018-11-12T11:37:25.095Z,14.90
2018-11-12T11:38:25.085Z,14.20
2018-11-12T11:39:25.077Z,14.30
2018-11-12T11:40:25.186Z,15.70
2018-11-12T11:41:25.060Z,15.20
2018-11-12T11:42:25.046Z,16.00
2018-11-12T11:43:25.037Z,16.20
2018-11-12T11:44:25.029Z,16.00
2018-11-12T11:45:25.021Z,17.20
2018-11-12T11:46:25.006Z,17.70
2018-11-12T11:47:25.106Z,17.90
2018-11-12T11:48:24.987Z,16.70
2018-11-12T11:49:24.977Z,19.00
2018-11-12T11:50:25.064Z,18.30
2018-11-12T11:51:24.960Z,18.20
2018-11-12T11:52:24.949Z,18.80
2018-11-12T11:53:24.940Z,19.80
2018-11-12T11:54:24.928Z,18.90
2018-11-12T11:55:24.918Z,19.20
2018-11-12T11:56:24.986Z,17.70
2018-11-12T11:57:25.052Z,17.90
2018-11-12T11:58:24.890Z,17.30
2018-11-12T11:59:24.882Z,18.80
2018-11-12T12:00:24.870Z,18.00
2018-11-12T12:01:24.861Z,18.10
2018-11-12T12:02:25.024Z,16.80
2018-11-12T12:03:24.841Z,18.30
2018-11-12T12:04:24.838Z,17.60
2018-11-12T12:05:24.822Z,16.10
2018-11-12T12:06:24.813Z,16.90
2018-11-12T12:07:24.804Z,16.60
2018-11-12T12:08:24.795Z,18.60
2018-11-12T12:09:24.888Z,16.20
2018-11-12T12:10:24.776Z,17.80
2018-11-12T12:11:24.766Z,17.20
2018-11-12T12:12:24.756Z,17.00
2018-11-12T12:13:24.747Z,15.90
2018-11-12T12:14:24.738Z,16.50
2018-11-12T12:15:24.728Z,15.20
2018-11-12T12:16:24.718Z,17.80
2018-11-12T12:17:24.711Z,14.90
2018-11-12T12:18:24.700Z,18.80
2018-11-12T12:19:24.690Z,14.70
2018-11-12T12:20:24.680Z,16.80
2018-11-12T12:21:24.672Z,15.60
2018-11-12T12:22:24.664Z,15.00
2018-11-12T12:23:24.654Z,15.40
2018-11-12T12:24:24.689Z,17.40
2018-11-12T12:25:24.741Z,17.40
2018-11-12T12:26:24.628Z,17.10
2018-11-12T12:27:24.617Z,16.10
2018-11-12T12:28:24.608Z,18.70
2018-11-12T12:29:24.598Z,17.90
2018-11-12T12:30:24.591Z,17.80
2018-11-12T12:31:24.583Z,16.40
2018-11-12T12:32:24.572Z,17.40
2018-11-12T12:33:24.561Z,16.20
2018-11-12T12:34:24.555Z,20.00
2018-11-12T12:35:24.548Z,16.20
2018-11-12T12:36:24.688Z,17.10
2018-11-12T12:37:24.525Z,15.00
2018-11-12T12:38:24.514Z,15.00
2018-11-12T12:39:24.507Z,14.90
2018-11-12T12:40:24.499Z,16.10
2018-11-12T12:41:24.489Z,15.00
2018-11-12T12:42:24.480Z,15.20
2018-11-12T12:43:24.471Z,14.10
2018-11-12T12:44:24.536Z,13.70
2018-11-12T12:45:24.699Z,14.40
2018-11-12T12:46:24.442Z,14.00
2018-11-12T12:47:24.436Z,13.30
2018-11-12T12:48:24.426Z,12.80
2018-11-12T12:49:24.485Z,12.10
2018-11-12T12:50:24.410Z,12.90
2018-11-12T12:51:24.466Z,13.00
2018-11-12T12:52:24.390Z,14.70